createdAt,value
2022-12-18T00:02:17.127Z,50.22
2022-12-18T00:04:43.825Z,49.63
2022-12-18T00:07:10.475Z,50.56
2022-12-18T00:09:39.750Z,50.15
2022-12-18T00:14:43.062Z,50.06
2022-12-18T00:17:09.687Z,49.06
2022-12-18T00:19:36.462Z,48.79
2022-12-18T00:22:03.111Z,49.29
2022-12-18T00:24:29.721Z,51.08
2022-12-18T00:26:56.310Z,50.88
2022-12-18T00:29:22.973Z,51.14
2022-12-18T00:31:49.762Z,50.91
2022-12-18T00:34:16.474Z,50.86
2022-12-18T00:36:43.121Z,50.73
2022-12-18T00:39:10.839Z,50.62
2022-12-18T00:41:37.530Z,50.84
2022-12-18T00:44:04.318Z,50.82
2022-12-18T00:46:30.970Z,50.65
2022-12-18T00:48:57.708Z,51.45
2022-12-18T00:51:24.792Z,50.93
2022-12-18T00:53:51.428Z,51.25
2022-12-18T00:56:18.080Z,49.96
2022-12-18T00:58:44.696Z,49.77
2022-12-18T01:01:11.583Z,49.87
2022-12-18T01:03:38.541Z,49.69
2022-12-18T01:06:09.257Z,49.71
2022-12-18T01:08:35.901Z,50.23
2022-12-18T01:11:07.739Z,49.94
2022-12-18T01:13:34.482Z,50.23
2022-12-18T01:16:01.202Z,50.29
2022-12-18T01:18:27.906Z,50.46
2022-12-18T01:20:54.551Z,50.85
2022-12-18T01:23:21.242Z,50.62
2022-12-18T01:25:47.851Z,50.23
2022-12-18T01:28:14.442Z,50.70
2022-12-18T01:30:41.091Z,50.55
2022-12-18T01:33:07.740Z,50.13
2022-12-18T01:35:34.380Z,50.96
2022-12-18T01:38:01.135Z,50.64
2022-12-18T01:40:27.723Z,51.52
2022-12-18T01:42:54.660Z,51.74
2022-12-18T01:45:24.167Z,51.49
2022-12-18T01:47:52.347Z,51.71
2022-12-18T01:50:22.869Z,52.19
2022-12-18T01:52:54.729Z,51.75
2022-12-18T01:55:23.283Z,51.38
2022-12-18T01:57:53.891Z,52.11
2022-12-18T02:00:21.163Z,51.54
2022-12-18T02:02:48.047Z,51.74
2022-12-18T02:05:20.234Z,52.34
2022-12-18T02:08:03.003Z,51.73
2022-12-18T02:10:32.784Z,51.94
2022-12-18T02:13:22.404Z,52.23
2022-12-18T02:16:07.154Z,52.43
2022-12-18T02:18:36.044Z,52.78
2022-12-18T02:21:46.589Z,52.38
2022-12-18T02:24:25.513Z,53.26
2022-12-18T02:26:54.405Z,53.51
2022-12-18T02:29:25.367Z,52.99
2022-12-18T02:31:54.620Z,53.61
2022-12-18T02:34:22.014Z,53.40
2022-12-18T02:36:48.783Z,53.42
2022-12-18T02:39:15.395Z,53.60
2022-12-18T02:41:42.997Z,53.55
2022-12-18T02:44:11.187Z,53.60
2022-12-18T02:46:45.770Z,52.81
2022-12-18T02:49:18.597Z,53.50
2022-12-18T02:52:06.633Z,53.96
2022-12-18T02:54:39.298Z,53.92
2022-12-18T02:57:30.036Z,53.30
2022-12-18T03:00:05.547Z,52.84
2022-12-18T03:03:00.481Z,53.05
2022-12-18T03:05:39.715Z,52.60
2022-12-18T03:08:06.173Z,52.10
2022-12-18T03:10:34.989Z,51.14
2022-12-18T03:13:06.944Z,52.35
2022-12-18T03:15:39.705Z,51.44
2022-12-18T03:18:12.083Z,52.37
2022-12-18T03:20:38.685Z,51.81
2022-12-18T03:23:10.956Z,52.32
2022-12-18T03:25:40.217Z,51.11
2022-12-18T03:28:06.817Z,50.68
2022-12-18T03:30:34.129Z,50.99
2022-12-18T03:33:06.323Z,51.00
2022-12-18T03:35:38.886Z,51.27
2022-12-18T03:38:05.601Z,50.34
2022-12-18T03:40:46.304Z,50.61
2022-12-18T03:43:42.710Z,51.45
2022-12-18T03:46:27.140Z,50.41
2022-12-18T03:48:57.256Z,50.11
2022-12-18T03:51:43.223Z,50.53
2022-12-18T03:54:09.860Z,49.78
2022-12-18T03:56:48.099Z,49.63
2022-12-18T03:59:14.967Z,49.54
2022-12-18T04:01:43.908Z,49.95
2022-12-18T04:04:10.685Z,49.88
2022-12-18T04:06:37.367Z,49.91
2022-12-18T04:09:04.199Z,50.04
2022-12-18T04:11:30.800Z,50.40
2022-12-18T04:13:58.239Z,50.40
2022-12-18T04:16:27.564Z,50.23
2022-12-18T04:18:54.357Z,50.11
2022-12-18T04:21:21.325Z,50.75
2022-12-18T04:23:47.992Z,51.16
2022-12-18T04:26:14.642Z,51.58
2022-12-18T04:28:41.255Z,51.81
2022-12-18T04:31:07.973Z,51.26
2022-12-18T04:33:34.661Z,50.61
2022-12-18T04:36:01.260Z,51.52
2022-12-18T04:38:28.043Z,51.14
2022-12-18T04:40:54.676Z,52.10
2022-12-18T04:43:21.395Z,53.01
2022-12-18T04:45:48.157Z,51.58
2022-12-18T04:48:14.773Z,51.95
2022-12-18T04:50:41.410Z,51.71
2022-12-18T04:53:08.071Z,51.35
2022-12-18T04:55:35.202Z,50.74
2022-12-18T04:58:01.808Z,50.76
2022-12-18T05:00:28.469Z,51.01
2022-12-18T05:02:55.619Z,51.06
2022-12-18T05:05:22.409Z,51.95
2022-12-18T05:07:49.029Z,51.28
2022-12-18T05:10:15.617Z,51.06
2022-12-18T05:12:42.256Z,51.22
2022-12-18T05:15:09.344Z,50.25
2022-12-18T05:17:36.040Z,50.97
2022-12-18T05:20:02.641Z,50.95
2022-12-18T05:22:29.249Z,50.93
2022-12-18T05:24:55.892Z,51.43
2022-12-18T05:27:22.532Z,50.63
2022-12-18T05:29:49.147Z,50.88
2022-12-18T05:32:15.811Z,50.25
2022-12-18T05:34:42.437Z,50.54
2022-12-18T05:37:09.055Z,50.72
2022-12-18T05:39:35.713Z,51.36
2022-12-18T05:42:02.331Z,51.17
2022-12-18T05:44:28.917Z,50.80
2022-12-18T05:46:55.693Z,51.46
2022-12-18T05:49:22.377Z,50.81
2022-12-18T05:51:48.965Z,51.59
2022-12-18T05:54:15.611Z,51.21
2022-12-18T05:56:48.401Z,50.38
2022-12-18T05:59:15.410Z,50.86
2022-12-18T06:01:42.521Z,51.72
2022-12-18T06:04:09.326Z,50.77
2022-12-18T06:06:35.985Z,50.95
2022-12-18T06:09:02.696Z,51.05
2022-12-18T06:11:29.284Z,50.63
2022-12-18T06:13:58.929Z,51.07
2022-12-18T06:16:26.957Z,50.94
2022-12-18T06:18:53.638Z,51.66
2022-12-18T06:21:20.329Z,51.41
2022-12-18T06:23:46.969Z,51.34
2022-12-18T06:26:13.767Z,51.68
2022-12-18T06:28:40.437Z,52.75
2022-12-18T06:31:07.275Z,51.81
2022-12-18T06:33:34.299Z,51.95
2022-12-18T06:36:01.942Z,51.19
2022-12-18T06:38:28.610Z,50.87
2022-12-18T06:40:55.249Z,50.70
2022-12-18T06:43:21.880Z,51.08
2022-12-18T06:45:48.575Z,52.50
2022-12-18T06:48:15.254Z,51.79
2022-12-18T06:50:44.691Z,51.28
2022-12-18T06:53:11.393Z,52.09
2022-12-18T06:55:38.185Z,51.24
2022-12-18T06:58:05.337Z,50.19
2022-12-18T07:00:32.148Z,50.36
2022-12-18T07:02:58.845Z,50.85
2022-12-18T07:05:25.485Z,50.89
2022-12-18T07:07:52.175Z,50.55
2022-12-18T07:10:18.993Z,50.58
2022-12-18T07:12:45.635Z,50.40
2022-12-18T07:15:12.294Z,50.39
2022-12-18T07:17:38.908Z,51.63
2022-12-18T07:20:05.786Z,51.86
2022-12-18T07:22:32.429Z,50.21
2022-12-18T07:24:59.016Z,50.11
2022-12-18T07:27:25.622Z,50.03
2022-12-18T07:29:52.744Z,49.85
2022-12-18T07:32:19.372Z,50.52
2022-12-18T07:34:46.013Z,51.13
2022-12-18T07:37:13.971Z,51.19
2022-12-18T07:39:41.440Z,51.34
2022-12-18T07:42:08.092Z,50.95
2022-12-18T07:44:34.911Z,50.97
2022-12-18T07:47:01.548Z,51.82
2022-12-18T07:49:28.832Z,50.25
2022-12-18T07:51:58.134Z,49.93
2022-12-18T07:54:25.313Z,50.30
2022-12-18T07:56:52.118Z,50.09
2022-12-18T07:59:18.978Z,52.20
2022-12-18T08:01:45.700Z,48.83
2022-12-18T08:04:13.562Z,49.31
2022-12-18T08:06:43.634Z,49.04
2022-12-18T08:09:12.804Z,48.68
2022-12-18T08:11:39.416Z,50.03
2022-12-18T08:14:06.012Z,49.97
2022-12-18T08:16:32.738Z,49.90
2022-12-18T08:18:59.417Z,49.79
2022-12-18T08:21:27.939Z,49.78
2022-12-18T08:23:56.057Z,49.45
2022-12-18T08:26:23.147Z,49.76
2022-12-18T08:28:50.396Z,48.25
2022-12-18T08:31:18.111Z,48.25
2022-12-18T08:33:44.880Z,49.16
2022-12-18T08:36:11.534Z,48.69
2022-12-18T08:38:38.242Z,47.92
2022-12-18T08:41:06.378Z,48.54
2022-12-18T08:43:33.011Z,48.39
2022-12-18T08:45:59.728Z,48.53
2022-12-18T08:48:26.534Z,48.60
2022-12-18T08:50:59.789Z,48.82
2022-12-18T08:53:29.246Z,49.02
2022-12-18T08:55:59.385Z,49.08
2022-12-18T08:58:26.073Z,48.76
2022-12-18T09:00:52.926Z,48.97
2022-12-18T09:03:19.807Z,48.72
2022-12-18T09:05:46.627Z,48.92
2022-12-18T09:08:13.312Z,48.81
2022-12-18T09:10:46.891Z,48.10
2022-12-18T09:13:13.702Z,48.38
2022-12-18T09:15:43.936Z,48.68
2022-12-18T09:18:10.613Z,49.57
2022-12-18T09:20:37.905Z,48.93
2022-12-18T09:23:04.993Z,49.12
2022-12-18T09:25:31.886Z,48.84
2022-12-18T09:27:58.492Z,49.76
2022-12-18T09:30:25.126Z,51.14
2022-12-18T09:32:51.823Z,51.35
2022-12-18T09:35:18.567Z,50.36
2022-12-18T09:37:45.296Z,50.03
2022-12-18T09:40:26.485Z,50.33
2022-12-18T09:42:58.417Z,49.47
2022-12-18T09:45:25.039Z,49.43
2022-12-18T09:47:51.695Z,49.52
2022-12-18T09:50:24.364Z,49.90
2022-12-18T09:52:54.337Z,50.58
2022-12-18T09:55:37.600Z,50.71
2022-12-18T09:58:32.102Z,50.81
2022-12-18T10:00:58.771Z,52.14
2022-12-18T10:03:25.555Z,51.47
2022-12-18T10:06:04.312Z,51.81
2022-12-18T10:08:37.160Z,51.19
2022-12-18T10:11:29.398Z,50.84
2022-12-18T10:13:59.865Z,50.23
2022-12-18T10:16:32.499Z,50.27
2022-12-18T10:19:27.357Z,50.14
2022-12-18T10:22:08.981Z,49.87
2022-12-18T10:25:00.756Z,49.21
2022-12-18T10:27:27.508Z,49.61
2022-12-18T10:29:54.296Z,50.64
2022-12-18T10:32:25.696Z,50.29
2022-12-18T10:34:59.871Z,49.62
2022-12-18T10:37:28.927Z,49.62
2022-12-18T10:40:20.159Z,49.17
2022-12-18T10:43:02.635Z,49.11
2022-12-18T10:45:29.372Z,49.35
2022-12-18T10:47:56.008Z,49.11
2022-12-18T10:51:01.403Z,49.93
2022-12-18T10:53:23.560Z,50.51
2022-12-18T10:55:50.197Z,50.38
2022-12-18T10:58:24.967Z,50.11
2022-12-18T11:01:11.650Z,49.67
2022-12-18T11:03:42.419Z,50.21
2022-12-18T11:06:13.798Z,50.65
2022-12-18T11:08:41.604Z,50.67
2022-12-18T11:11:28.561Z,49.79
2022-12-18T11:14:13.378Z,49.46
2022-12-18T11:17:03.088Z,49.02
2022-12-18T11:19:36.393Z,49.09
2022-12-18T11:22:22.173Z,48.65
2022-12-18T11:25:30.003Z,48.42
2022-12-18T11:27:56.725Z,48.53
2022-12-18T11:30:38.262Z,48.01
2022-12-18T11:33:16.583Z,48.61
2022-12-18T11:35:56.923Z,48.55
2022-12-18T11:38:27.581Z,48.54
2022-12-18T11:41:10.503Z,49.64
2022-12-18T11:43:40.123Z,50.93
2022-12-18T11:46:17.725Z,52.09
2022-12-18T11:48:47.158Z,52.21
2022-12-18T11:51:19.763Z,51.96
2022-12-18T11:53:46.508Z,51.58
2022-12-18T11:56:28.589Z,51.00
2022-12-18T11:59:34.081Z,50.26
2022-12-18T12:02:19.310Z,49.53
2022-12-18T12:05:04.624Z,49.43
2022-12-18T12:07:49.919Z,49.67
2022-12-18T12:10:22.325Z,49.71
2022-12-18T12:13:13.490Z,49.89
2022-12-18T12:15:50.202Z,49.82
2022-12-18T12:18:38.185Z,49.90
2022-12-18T12:21:14.171Z,49.88
2022-12-18T12:23:46.762Z,49.60
2022-12-18T12:26:21.952Z,49.63
2022-12-18T12:28:48.472Z,49.41
2022-12-18T12:31:27.298Z,50.46
2022-12-18T12:34:24.137Z,50.83
2022-12-18T12:37:17.428Z,50.47
2022-12-18T12:39:44.761Z,49.66
2022-12-18T12:42:30.353Z,49.92
2022-12-18T12:44:57.496Z,49.78
2022-12-18T12:47:29.190Z,49.64
2022-12-18T12:49:56.471Z,49.81
2022-12-18T12:52:35.977Z,49.26
2022-12-18T12:55:03.490Z,49.16
2022-12-18T12:57:35.698Z,48.49
2022-12-18T13:00:15.763Z,48.42
2022-12-18T13:02:53.621Z,48.48
2022-12-18T13:05:26.195Z,48.71
2022-12-18T13:08:12.430Z,49.05
2022-12-18T13:10:42.510Z,49.40
2022-12-18T13:13:12.936Z,48.62
2022-12-18T13:15:43.363Z,49.04
2022-12-18T13:18:10.165Z,49.39
2022-12-18T13:20:37.929Z,49.65
2022-12-18T13:23:26.542Z,49.94
2022-12-18T13:26:08.117Z,49.92
2022-12-18T13:28:34.944Z,50.03
2022-12-18T13:31:02.174Z,50.52
2022-12-18T13:34:16.460Z,50.43
2022-12-18T13:36:34.536Z,50.54
2022-12-18T13:39:35.141Z,50.44
2022-12-18T13:42:08.308Z,50.38
2022-12-18T13:44:40.279Z,51.39
2022-12-18T13:47:35.046Z,50.48
2022-12-18T13:50:03.205Z,50.88
2022-12-18T13:52:35.981Z,50.78
2022-12-18T13:55:03.498Z,50.43
2022-12-18T13:57:38.271Z,50.99
2022-12-18T14:00:23.725Z,51.06
2022-12-18T14:02:50.817Z,51.04
2022-12-18T14:05:27.237Z,52.45
2022-12-18T14:07:54.813Z,53.06
2022-12-18T14:13:10.174Z,52.50
2022-12-18T14:15:41.218Z,52.51
2022-12-18T14:18:30.335Z,52.48
2022-12-18T14:20:58.877Z,52.50
2022-12-18T14:23:35.529Z,52.62
2022-12-18T14:26:05.955Z,52.30
2022-12-18T14:28:33.032Z,53.18
2022-12-18T14:30:59.790Z,53.63
2022-12-18T14:33:27.526Z,53.87
2022-12-18T14:35:56.816Z,53.65
2022-12-18T14:38:35.945Z,54.05
2022-12-18T14:41:05.997Z,53.55
2022-12-18T14:43:35.128Z,52.90
2022-12-18T14:46:01.946Z,52.93
2022-12-18T14:48:37.021Z,54.27
2022-12-18T14:51:13.846Z,53.77
2022-12-18T14:53:42.680Z,54.45
2022-12-18T14:56:25.419Z,54.23
2022-12-18T14:58:55.419Z,53.92
2022-12-18T15:01:27.344Z,54.65
2022-12-18T15:03:54.508Z,53.83
2022-12-18T15:06:37.770Z,53.86
2022-12-18T15:09:25.283Z,54.33
2022-12-18T15:11:56.885Z,54.29
2022-12-18T15:14:35.483Z,53.67
2022-12-18T15:17:03.216Z,53.92
2022-12-18T15:19:40.424Z,54.35
2022-12-18T15:22:28.023Z,54.42
2022-12-18T15:24:55.415Z,55.16
2022-12-18T15:27:25.131Z,55.24
2022-12-18T15:30:10.113Z,54.75
2022-12-18T15:32:37.621Z,56.71
2022-12-18T15:35:25.293Z,56.25
2022-12-18T15:37:52.499Z,55.15
2022-12-18T15:40:20.977Z,55.94
2022-12-18T15:42:47.857Z,55.86
2022-12-18T15:45:15.229Z,55.88
2022-12-18T15:47:41.952Z,56.86
2022-12-18T15:50:09.833Z,57.09
2022-12-18T15:52:47.071Z,56.96
2022-12-18T15:55:21.324Z,56.75
2022-12-18T15:57:47.940Z,56.53
2022-12-18T16:00:14.877Z,57.03
2022-12-18T16:02:42.949Z,56.30
2022-12-18T16:05:14.713Z,56.47
2022-12-18T16:07:41.395Z,56.82
2022-12-18T16:10:08.333Z,56.56
2022-12-18T16:12:35.033Z,56.26
2022-12-18T16:15:03.291Z,56.61
2022-12-18T16:17:29.989Z,56.65
2022-12-18T16:19:56.906Z,57.07
2022-12-18T16:22:25.252Z,56.06
2022-12-18T16:24:52.324Z,55.15
2022-12-18T16:27:18.982Z,55.79
2022-12-18T16:29:45.808Z,55.04
2022-12-18T16:32:14.115Z,55.41
2022-12-18T16:34:40.792Z,55.58
2022-12-18T16:37:10.293Z,55.50
2022-12-18T16:39:37.441Z,55.98
2022-12-18T16:42:12.075Z,55.76
2022-12-18T16:44:38.665Z,56.02
2022-12-18T16:47:05.325Z,55.62
2022-12-18T16:49:33.268Z,56.14
2022-12-18T16:51:59.904Z,56.52
2022-12-18T16:54:26.570Z,56.10
2022-12-18T16:56:53.227Z,56.26
2022-12-18T16:59:20.003Z,55.91
2022-12-18T17:01:46.855Z,55.89
2022-12-18T17:04:13.547Z,55.91
2022-12-18T17:06:42.054Z,55.35
2022-12-18T17:09:11.446Z,56.20
2022-12-18T17:11:38.091Z,54.52
2022-12-18T17:14:13.341Z,53.85
2022-12-18T17:16:40.224Z,54.39
2022-12-18T17:19:12.128Z,54.57
2022-12-18T17:21:41.982Z,53.88
2022-12-18T17:24:08.670Z,54.14
2022-12-18T17:26:35.311Z,53.21
2022-12-18T17:29:01.972Z,54.56
2022-12-18T17:31:29.333Z,55.06
2022-12-18T17:33:56.165Z,55.80
2022-12-18T17:36:22.869Z,53.72
2022-12-18T17:38:53.221Z,53.64
2022-12-18T17:41:20.020Z,55.85
2022-12-18T17:43:59.573Z,54.16
2022-12-18T17:46:26.871Z,56.12
2022-12-18T17:48:55.900Z,55.56
2022-12-18T17:51:22.612Z,55.26
2022-12-18T17:53:49.214Z,55.63
2022-12-18T17:56:16.875Z,55.25
2022-12-18T17:58:43.642Z,55.76
2022-12-18T18:01:14.786Z,55.21
2022-12-18T18:03:43.176Z,55.84
2022-12-18T18:06:10.320Z,56.54
2022-12-18T18:08:37.044Z,56.03
2022-12-18T18:11:07.672Z,56.22
2022-12-18T18:13:38.660Z,56.94
2022-12-18T18:16:08.337Z,56.54
2022-12-18T18:18:35.015Z,57.12
2022-12-18T18:21:08.441Z,56.18
2022-12-18T18:23:35.895Z,56.73
2022-12-18T18:26:06.557Z,57.69
2022-12-18T18:28:33.856Z,57.53
2022-12-18T18:31:06.891Z,57.42
2022-12-18T18:33:33.840Z,57.53
2022-12-18T18:36:00.465Z,57.57
2022-12-18T18:38:27.511Z,57.55
2022-12-18T18:41:03.597Z,57.90
2022-12-18T18:43:30.247Z,57.52
2022-12-18T18:45:57.541Z,57.96
2022-12-18T18:48:26.086Z,56.68
2022-12-18T18:50:59.531Z,56.61
2022-12-18T18:53:26.162Z,57.43
2022-12-18T18:56:26.170Z,57.29
2022-12-18T18:58:39.387Z,58.14
2022-12-18T19:01:07.915Z,57.90
2022-12-18T19:03:35.642Z,57.50
2022-12-18T19:06:02.283Z,57.74
2022-12-18T19:08:30.814Z,57.66
2022-12-18T19:10:58.569Z,57.69
2022-12-18T19:13:26.376Z,58.64
2022-12-18T19:16:05.121Z,57.50
2022-12-18T19:18:31.760Z,58.15
2022-12-18T19:21:02.096Z,57.36
2022-12-18T19:23:29.199Z,56.55
2022-12-18T19:26:17.050Z,55.83
2022-12-18T19:28:48.618Z,55.13
2022-12-18T19:31:18.823Z,56.55
2022-12-18T19:33:49.533Z,56.32
2022-12-18T19:36:24.124Z,55.35
2022-12-18T19:38:51.972Z,55.95
2022-12-18T19:41:18.836Z,56.83
2022-12-18T19:43:46.934Z,56.39
2022-12-18T19:46:19.175Z,54.86
2022-12-18T19:48:46.694Z,57.07
2022-12-18T19:51:24.571Z,57.00
2022-12-18T19:53:56.401Z,54.55
2022-12-18T19:56:26.226Z,55.31
2022-12-18T19:58:54.728Z,55.25
2022-12-18T20:01:22.501Z,56.18
2022-12-18T20:03:52.591Z,55.35
2022-12-18T20:06:26.107Z,55.38
2022-12-18T20:08:52.834Z,54.51
2022-12-18T20:11:21.370Z,54.37
2022-12-18T20:13:48.062Z,54.37
2022-12-18T20:16:14.754Z,55.39
2022-12-18T20:18:41.534Z,55.50
2022-12-18T20:21:13.709Z,54.83
2022-12-18T20:23:41.016Z,55.34
2022-12-18T20:26:08.668Z,56.27
2022-12-18T20:28:35.468Z,55.99
2022-12-18T20:31:02.733Z,54.64
2022-12-18T20:33:29.580Z,54.05
2022-12-18T20:36:03.258Z,54.80
2022-12-18T20:38:30.660Z,54.80
2022-12-18T20:40:58.671Z,55.17
2022-12-18T20:43:25.294Z,54.90
2022-12-18T20:45:51.987Z,54.98
2022-12-18T20:48:23.572Z,55.94
2022-12-18T20:51:09.496Z,55.77
2022-12-18T20:53:36.224Z,55.80
2022-12-18T20:56:15.037Z,56.98
2022-12-18T20:58:45.546Z,56.78
2022-12-18T21:01:14.009Z,55.83
2022-12-18T21:03:41.499Z,55.98
2022-12-18T21:06:08.208Z,56.63
2022-12-18T21:08:34.903Z,56.84
2022-12-18T21:11:13.474Z,56.47
2022-12-18T21:13:40.332Z,55.58
2022-12-18T21:16:07.146Z,56.72
2022-12-18T21:18:35.237Z,56.03
2022-12-18T21:21:02.200Z,56.16
2022-12-18T21:23:29.132Z,56.92
2022-12-18T21:25:57.556Z,56.68
2022-12-18T21:28:24.215Z,56.57
2022-12-18T21:30:51.166Z,56.38
2022-12-18T21:33:17.861Z,56.17
2022-12-18T21:35:44.506Z,56.05
2022-12-18T21:38:11.186Z,55.90
2022-12-18T21:40:39.185Z,56.47
2022-12-18T21:43:05.833Z,56.30
2022-12-18T21:45:32.430Z,55.93
2022-12-18T21:47:59.026Z,55.50
2022-12-18T21:50:25.743Z,55.88
2022-12-18T21:52:52.384Z,55.82
2022-12-18T21:55:19.051Z,55.77
2022-12-18T21:57:45.690Z,54.99
2022-12-18T22:00:18.537Z,56.29
2022-12-18T22:02:47.027Z,55.25
2022-12-18T22:05:13.872Z,54.73
2022-12-18T22:07:40.541Z,55.47
2022-12-18T22:10:07.700Z,56.46
2022-12-18T22:12:34.352Z,56.39
2022-12-18T22:15:01.460Z,55.60
2022-12-18T22:17:28.179Z,54.97
2022-12-18T22:19:54.891Z,57.05
2022-12-18T22:22:21.577Z,56.61
2022-12-18T22:24:48.232Z,56.36
2022-12-18T22:27:14.894Z,56.53
2022-12-18T22:29:41.503Z,56.55
2022-12-18T22:32:09.718Z,56.92
2022-12-18T22:34:38.648Z,56.78
2022-12-18T22:37:05.385Z,56.20
2022-12-18T22:39:32.080Z,56.04
2022-12-18T22:41:58.837Z,57.15
2022-12-18T22:44:26.517Z,56.79
2022-12-18T22:47:05.628Z,56.62
2022-12-18T22:49:34.820Z,56.31
2022-12-18T22:52:02.266Z,56.15
2022-12-18T22:54:28.904Z,56.68
2022-12-18T22:56:55.515Z,56.19
2022-12-18T22:59:22.703Z,56.25
2022-12-18T23:01:49.898Z,56.59
2022-12-18T23:04:17.459Z,56.84
2022-12-18T23:06:44.261Z,56.29
2022-12-18T23:09:19.281Z,56.50
2022-12-18T23:11:46.084Z,56.49
2022-12-18T23:14:12.952Z,56.44
2022-12-18T23:16:39.566Z,55.34
2022-12-18T23:19:06.307Z,56.33
2022-12-18T23:21:32.916Z,55.44
2022-12-18T23:24:00.684Z,56.33
2022-12-18T23:26:27.503Z,55.16
2022-12-18T23:28:54.184Z,56.18
2022-12-18T23:31:28.599Z,56.91
2022-12-18T23:33:56.236Z,57.06
2022-12-18T23:36:23.038Z,56.85
2022-12-18T23:38:54.167Z,56.19
2022-12-18T23:41:21.672Z,56.13
2022-12-18T23:43:48.459Z,56.48
2022-12-18T23:46:19.107Z,56.58
2022-12-18T23:48:45.892Z,56.36
2022-12-18T23:51:13.202Z,56.75
2022-12-18T23:53:39.957Z,56.20
2022-12-18T23:56:07.103Z,56.21
2022-12-18T23:58:33.872Z,56.46
